createdAt,value
2022-11-26T00:01:21.393Z,36.41
2022-11-26T00:03:49.976Z,36.76
2022-11-26T00:06:32.277Z,36.39
2022-11-26T00:09:01.694Z,36.17
2022-11-26T00:11:29.849Z,36.15
2022-11-26T00:13:58.070Z,36.08
2022-11-26T00:16:28.241Z,36.19
2022-11-26T00:18:56.426Z,35.91
2022-11-26T00:21:26.331Z,35.50
2022-11-26T00:23:55.580Z,35.81
2022-11-26T00:26:25.197Z,36.04
2022-11-26T00:29:00.443Z,36.49
2022-11-26T00:31:29.766Z,36.81
2022-11-26T00:33:57.961Z,36.97
2022-11-26T00:36:32.267Z,36.29
2022-11-26T00:39:07.526Z,36.56
2022-11-26T00:41:38.979Z,36.11
2022-11-26T00:44:18.300Z,36.09
2022-11-26T00:46:46.428Z,36.52
2022-11-26T00:49:15.216Z,36.88
2022-11-26T00:51:43.816Z,37.07
2022-11-26T00:54:15.405Z,37.04
2022-11-26T00:56:43.480Z,37.38
2022-11-26T00:59:18.039Z,36.81
2022-11-26T01:01:46.380Z,37.34
2022-11-26T01:04:14.339Z,37.08
2022-11-26T01:06:45.227Z,37.12
2022-11-26T01:09:23.501Z,36.88
2022-11-26T01:11:54.513Z,37.40
2022-11-26T01:14:23.849Z,37.00
2022-11-26T01:16:55.256Z,36.72
2022-11-26T01:19:23.623Z,36.85
2022-11-26T01:21:51.674Z,36.92
2022-11-26T01:24:19.648Z,36.41
2022-11-26T01:26:47.627Z,36.11
2022-11-26T01:29:20.458Z,36.04
2022-11-26T01:31:48.803Z,36.38
2022-11-26T01:34:17.027Z,36.46
2022-11-26T01:36:44.952Z,36.54
2022-11-26T01:39:21.551Z,36.51
2022-11-26T01:41:57.447Z,36.27
2022-11-26T01:44:31.554Z,36.23
2022-11-26T01:47:00.721Z,36.66
2022-11-26T01:49:31.291Z,36.68
2022-11-26T01:52:25.531Z,36.68
2022-11-26T01:54:53.953Z,37.08
2022-11-26T01:57:30.535Z,37.30
2022-11-26T02:00:04.530Z,36.69
2022-11-26T02:02:41.608Z,36.79
2022-11-26T02:05:20.913Z,36.78
2022-11-26T02:07:50.125Z,36.35
2022-11-26T02:10:18.679Z,36.83
2022-11-26T02:12:47.737Z,37.14
2022-11-26T02:15:16.012Z,36.70
2022-11-26T02:17:49.172Z,36.02
2022-11-26T02:20:32.459Z,36.01
2022-11-26T02:23:37.642Z,35.61
2022-11-26T02:26:11.667Z,35.27
2022-11-26T02:28:55.415Z,35.41
2022-11-26T02:31:41.848Z,35.28
2022-11-26T02:34:25.699Z,34.73
2022-11-26T02:37:05.870Z,34.91
2022-11-26T02:39:33.825Z,34.99
2022-11-26T02:42:04.374Z,34.99
2022-11-26T02:44:45.083Z,34.79
2022-11-26T02:47:16.986Z,34.92
2022-11-26T02:49:46.550Z,35.20
2022-11-26T02:52:16.857Z,34.77
2022-11-26T02:54:46.442Z,35.07
2022-11-26T02:57:16.984Z,35.41
2022-11-26T02:59:45.586Z,35.73
2022-11-26T03:02:25.325Z,35.79
2022-11-26T03:04:57.252Z,35.91
2022-11-26T03:07:26.938Z,35.64
2022-11-26T03:09:57.279Z,36.04
2022-11-26T03:12:26.624Z,35.91
2022-11-26T03:14:54.854Z,35.64
2022-11-26T03:17:23.286Z,35.60
2022-11-26T03:19:52.024Z,34.93
2022-11-26T03:22:21.482Z,35.58
2022-11-26T03:24:49.540Z,35.26
2022-11-26T03:27:17.836Z,35.51
2022-11-26T03:29:46.165Z,35.79
2022-11-26T03:32:14.355Z,35.33
2022-11-26T03:34:43.161Z,35.13
2022-11-26T03:37:11.444Z,35.26
2022-11-26T03:39:39.763Z,35.37
2022-11-26T03:42:08.039Z,35.48
2022-11-26T03:44:36.872Z,34.51
2022-11-26T03:47:05.253Z,34.48
2022-11-26T03:49:33.654Z,34.26
2022-11-26T03:52:01.809Z,34.04
2022-11-26T03:54:29.944Z,34.57
2022-11-26T03:56:57.811Z,34.24
2022-11-26T03:59:25.964Z,33.78
2022-11-26T04:01:53.953Z,34.06
2022-11-26T04:04:22.119Z,33.59
2022-11-26T04:06:50.454Z,33.39
2022-11-26T04:09:18.531Z,33.47
2022-11-26T04:11:48.222Z,33.98
2022-11-26T04:14:17.515Z,33.43
2022-11-26T04:16:45.495Z,33.27
2022-11-26T04:19:13.458Z,33.40
2022-11-26T04:21:41.609Z,33.42
2022-11-26T04:24:10.127Z,33.13
2022-11-26T04:26:38.348Z,33.62
2022-11-26T04:29:06.469Z,33.34
2022-11-26T04:31:34.740Z,33.34
2022-11-26T04:34:02.873Z,33.01
2022-11-26T04:36:31.557Z,33.18
2022-11-26T04:38:59.565Z,32.91
2022-11-26T04:41:27.608Z,33.44
2022-11-26T04:43:55.825Z,33.63
2022-11-26T04:46:24.129Z,33.83
2022-11-26T04:48:52.155Z,33.76
2022-11-26T04:51:20.142Z,33.06
2022-11-26T04:53:49.078Z,33.12
2022-11-26T04:56:17.077Z,32.95
2022-11-26T04:58:45.127Z,33.13
2022-11-26T05:01:13.493Z,32.99
2022-11-26T05:03:41.527Z,33.05
2022-11-26T05:06:09.798Z,33.34
2022-11-26T05:08:38.162Z,32.74
2022-11-26T05:11:06.614Z,33.14
2022-11-26T05:13:34.953Z,32.96
2022-11-26T05:16:03.355Z,32.59
2022-11-26T05:18:31.312Z,32.78
2022-11-26T05:21:00.479Z,32.61
2022-11-26T05:23:28.383Z,32.24
2022-11-26T05:25:56.724Z,32.85
2022-11-26T05:28:25.144Z,33.42
2022-11-26T05:31:01.529Z,33.18
2022-11-26T05:33:30.351Z,32.83
2022-11-26T05:35:58.750Z,33.65
2022-11-26T05:38:27.468Z,33.73
2022-11-26T05:40:55.587Z,34.01
2022-11-26T05:43:23.958Z,33.97
2022-11-26T05:45:52.180Z,33.83
2022-11-26T05:48:20.459Z,33.96
2022-11-26T05:50:53.161Z,34.05
2022-11-26T05:53:22.556Z,33.63
2022-11-26T05:55:50.825Z,33.56
2022-11-26T05:58:19.154Z,33.50
2022-11-26T06:00:47.389Z,33.22
2022-11-26T06:03:19.779Z,33.44
2022-11-26T06:05:48.550Z,33.80
2022-11-26T06:08:16.816Z,33.69
2022-11-26T06:10:45.288Z,33.61
2022-11-26T06:13:13.358Z,33.91
2022-11-26T06:15:41.636Z,33.56
2022-11-26T06:18:09.722Z,33.77
2022-11-26T06:20:38.759Z,33.31
2022-11-26T06:23:06.991Z,33.27
2022-11-26T06:25:35.102Z,32.04
2022-11-26T06:28:03.388Z,32.22
2022-11-26T06:30:33.946Z,31.91
2022-11-26T06:33:02.191Z,31.74
2022-11-26T06:35:30.416Z,31.98
2022-11-26T06:37:58.588Z,32.30
2022-11-26T06:40:27.126Z,31.94
2022-11-26T06:42:55.143Z,32.62
2022-11-26T06:45:24.821Z,32.92
2022-11-26T06:47:53.418Z,32.80
2022-11-26T06:50:23.451Z,32.87
2022-11-26T06:52:53.072Z,33.33
2022-11-26T06:55:21.647Z,32.98
2022-11-26T06:57:51.670Z,32.72
2022-11-26T07:00:20.648Z,33.00
2022-11-26T07:02:49.413Z,33.21
2022-11-26T07:05:17.552Z,32.95
2022-11-26T07:07:45.657Z,32.96
2022-11-26T07:10:13.746Z,33.07
2022-11-26T07:12:42.038Z,32.64
2022-11-26T07:15:11.016Z,32.86
2022-11-26T07:17:39.408Z,32.41
2022-11-26T07:20:07.826Z,32.36
2022-11-26T07:22:36.372Z,32.30
2022-11-26T07:25:09.368Z,32.64
2022-11-26T07:27:40.917Z,32.08
2022-11-26T07:30:10.036Z,32.03
2022-11-26T07:32:38.337Z,31.46
2022-11-26T07:35:10.732Z,32.07
2022-11-26T07:37:39.016Z,31.86
2022-11-26T07:40:08.064Z,31.89
2022-11-26T07:42:36.078Z,30.95
2022-11-26T07:45:04.891Z,31.21
2022-11-26T07:47:33.202Z,31.62
2022-11-26T07:50:03.170Z,31.10
2022-11-26T07:52:31.444Z,30.92
2022-11-26T07:54:59.673Z,31.22
2022-11-26T07:57:28.874Z,31.59
2022-11-26T07:59:57.097Z,31.62
2022-11-26T08:02:25.414Z,31.61
2022-11-26T08:04:53.695Z,31.17
2022-11-26T08:07:26.082Z,31.19
2022-11-26T08:09:57.401Z,31.79
2022-11-26T08:12:25.636Z,31.69
2022-11-26T08:14:54.333Z,31.69
2022-11-26T08:17:22.565Z,31.31
2022-11-26T08:19:50.879Z,31.11
2022-11-26T08:22:19.226Z,30.86
2022-11-26T08:24:47.480Z,31.49
2022-11-26T08:27:15.761Z,31.59
2022-11-26T08:29:44.163Z,32.20
2022-11-26T08:32:14.661Z,32.11
2022-11-26T08:34:43.277Z,32.44
2022-11-26T08:37:11.313Z,32.51
2022-11-26T08:39:39.752Z,32.27
2022-11-26T08:42:07.930Z,32.24
2022-11-26T08:44:36.275Z,32.49
2022-11-26T08:47:04.973Z,36.68
2022-11-26T08:49:33.004Z,38.20
2022-11-26T08:52:01.231Z,46.57
2022-11-26T08:54:29.719Z,41.88
2022-11-26T08:56:57.759Z,39.20
2022-11-26T08:59:25.652Z,35.88
2022-11-26T09:01:53.832Z,34.90
2022-11-26T09:04:21.964Z,35.71
2022-11-26T09:06:50.217Z,35.06
2022-11-26T09:09:18.546Z,33.65
2022-11-26T09:11:48.174Z,32.98
2022-11-26T09:14:19.114Z,31.63
2022-11-26T09:16:48.252Z,31.71
2022-11-26T09:19:17.754Z,31.66
2022-11-26T09:21:46.342Z,31.90
2022-11-26T09:24:14.808Z,31.58
2022-11-26T09:26:43.407Z,31.68
2022-11-26T09:29:16.694Z,30.92
2022-11-26T09:32:15.521Z,31.42
2022-11-26T09:34:33.833Z,31.21
2022-11-26T09:37:02.109Z,31.00
2022-11-26T09:39:30.991Z,31.45
2022-11-26T09:42:07.254Z,31.36
2022-11-26T09:45:14.039Z,32.61
2022-11-26T09:47:48.356Z,31.35
2022-11-26T09:50:16.368Z,31.97
2022-11-26T09:53:13.792Z,34.97
2022-11-26T09:55:44.412Z,32.77
2022-11-26T09:58:25.265Z,32.05
2022-11-26T10:00:58.863Z,31.43
2022-11-26T10:03:36.518Z,31.79
2022-11-26T10:06:32.692Z,33.40
2022-11-26T10:09:03.797Z,33.97
2022-11-26T10:12:03.102Z,34.20
2022-11-26T10:14:46.698Z,33.92
2022-11-26T10:17:29.682Z,32.46
2022-11-26T10:20:00.542Z,32.38
2022-11-26T10:22:57.063Z,32.80
2022-11-26T10:25:30.383Z,31.33
2022-11-26T10:27:59.785Z,31.83
2022-11-26T10:30:29.649Z,31.09
2022-11-26T10:33:02.657Z,30.84
2022-11-26T10:35:30.785Z,30.80
2022-11-26T10:37:59.365Z,30.41
2022-11-26T10:40:32.432Z,30.70
2022-11-26T10:43:03.620Z,30.60
2022-11-26T10:45:42.179Z,30.35
2022-11-26T10:48:31.257Z,31.26
2022-11-26T10:51:06.340Z,31.14
2022-11-26T10:53:55.384Z,32.60
2022-11-26T10:56:31.717Z,31.73
2022-11-26T10:59:23.403Z,32.08
2022-11-26T11:01:56.027Z,31.85
2022-11-26T11:04:39.570Z,31.90
2022-11-26T11:07:39.164Z,31.37
2022-11-26T11:10:11.265Z,31.68
2022-11-26T11:12:51.176Z,31.90
2022-11-26T11:15:31.177Z,31.77
2022-11-26T11:18:22.487Z,31.87
2022-11-26T11:20:58.241Z,33.17
2022-11-26T11:23:46.129Z,32.69
2022-11-26T11:26:27.005Z,32.73
2022-11-26T11:28:56.660Z,32.27
2022-11-26T11:31:29.126Z,31.39
2022-11-26T11:34:20.402Z,30.79
2022-11-26T11:37:15.175Z,30.42
2022-11-26T11:39:44.338Z,31.41
2022-11-26T11:42:30.154Z,31.85
2022-11-26T11:45:00.959Z,31.47
2022-11-26T11:47:33.903Z,31.24
2022-11-26T11:50:20.357Z,33.78
2022-11-26T11:53:20.708Z,35.28
2022-11-26T11:56:02.500Z,34.72
2022-11-26T11:58:59.721Z,33.05
2022-11-26T12:01:46.060Z,39.25
2022-11-26T12:04:41.133Z,40.22
2022-11-26T12:07:40.574Z,38.90
2022-11-26T12:10:40.052Z,37.53
2022-11-26T12:13:14.388Z,36.06
2022-11-26T12:15:49.380Z,33.45
2022-11-26T12:18:31.212Z,33.23
2022-11-26T12:21:14.678Z,31.69
2022-11-26T12:24:06.407Z,33.20
2022-11-26T12:26:36.119Z,32.43
2022-11-26T12:29:12.786Z,32.88
2022-11-26T12:31:55.817Z,33.76
2022-11-26T12:34:40.289Z,33.38
2022-11-26T12:37:27.006Z,32.68
2022-11-26T12:39:59.778Z,32.70
2022-11-26T12:42:46.185Z,33.67
2022-11-26T12:45:36.361Z,32.33
2022-11-26T12:48:18.778Z,32.75
2022-11-26T12:50:57.387Z,32.20
2022-11-26T12:53:40.483Z,32.62
2022-11-26T12:56:11.637Z,32.38
2022-11-26T12:58:48.771Z,32.65
2022-11-26T13:01:16.929Z,31.97
2022-11-26T13:03:45.424Z,33.36
2022-11-26T13:06:35.313Z,31.91
2022-11-26T13:09:17.265Z,32.70
2022-11-26T13:12:10.447Z,32.65
2022-11-26T13:14:45.622Z,31.98
2022-11-26T13:17:27.398Z,31.50
2022-11-26T13:20:23.630Z,31.29
2022-11-26T13:23:00.709Z,30.99
2022-11-26T13:25:57.872Z,31.56
2022-11-26T13:28:31.936Z,31.59
2022-11-26T13:31:24.609Z,32.00
2022-11-26T13:34:03.756Z,31.79
2022-11-26T13:37:13.927Z,31.72
2022-11-26T13:39:57.704Z,32.29
2022-11-26T13:42:56.709Z,31.27
2022-11-26T13:45:55.617Z,31.30
2022-11-26T13:48:48.344Z,31.04
2022-11-26T13:51:46.423Z,31.94
2022-11-26T13:54:23.767Z,31.97
2022-11-26T13:57:06.585Z,31.46
2022-11-26T13:59:35.365Z,31.28
2022-11-26T14:02:35.508Z,30.70
2022-11-26T14:05:24.215Z,30.92
2022-11-26T14:08:51.096Z,31.09
2022-11-26T14:11:54.819Z,31.79
2022-11-26T14:14:25.924Z,32.11
2022-11-26T14:17:03.423Z,32.93
2022-11-26T14:19:58.767Z,32.57
2022-11-26T14:22:35.106Z,32.09
2022-11-26T14:25:09.376Z,32.57
2022-11-26T14:27:57.870Z,32.40
2022-11-26T14:30:28.050Z,32.55
2022-11-26T14:33:17.617Z,32.12
2022-11-26T14:35:57.226Z,31.65
2022-11-26T14:38:28.060Z,31.47
2022-11-26T14:40:58.738Z,31.24
2022-11-26T14:43:29.337Z,31.48
2022-11-26T14:46:15.302Z,32.18
2022-11-26T14:48:49.054Z,30.73
2022-11-26T14:51:23.270Z,31.57
2022-11-26T14:53:52.102Z,31.50
2022-11-26T14:56:23.406Z,31.43
2022-11-26T14:59:02.215Z,30.84
2022-11-26T15:01:33.534Z,31.58
2022-11-26T15:04:03.301Z,31.45
2022-11-26T15:06:39.664Z,31.12
2022-11-26T15:09:10.807Z,31.60
2022-11-26T15:11:48.627Z,32.02
2022-11-26T15:14:38.971Z,31.99
2022-11-26T15:17:12.480Z,31.90
2022-11-26T15:19:41.691Z,32.39
2022-11-26T15:22:25.365Z,32.81
2022-11-26T15:24:54.729Z,32.81
2022-11-26T15:27:52.444Z,32.91
2022-11-26T15:30:24.116Z,33.15
2022-11-26T15:33:02.974Z,32.81
2022-11-26T15:35:33.555Z,33.39
2022-11-26T15:38:01.748Z,33.83
2022-11-26T15:40:33.243Z,33.95
2022-11-26T15:43:05.316Z,34.28
2022-11-26T15:45:41.499Z,32.92
2022-11-26T15:48:36.425Z,32.54
2022-11-26T15:51:22.912Z,32.63
2022-11-26T15:53:51.610Z,32.27
2022-11-26T15:56:26.784Z,32.30
2022-11-26T15:58:59.215Z,32.50
2022-11-26T16:01:32.932Z,32.79
2022-11-26T16:04:05.034Z,32.55
2022-11-26T16:06:42.104Z,33.33
2022-11-26T16:09:13.696Z,33.31
2022-11-26T16:12:00.025Z,33.43
2022-11-26T16:14:41.401Z,34.44
2022-11-26T16:17:16.185Z,34.63
2022-11-26T16:19:51.669Z,34.74
2022-11-26T16:22:26.957Z,35.09
2022-11-26T16:25:22.619Z,36.05
2022-11-26T16:28:07.862Z,36.17
2022-11-26T16:30:36.694Z,35.49
2022-11-26T16:33:06.349Z,36.22
2022-11-26T16:35:50.924Z,36.53
2022-11-26T16:38:24.458Z,36.30
2022-11-26T16:40:53.733Z,36.18
2022-11-26T16:43:21.984Z,36.82
2022-11-26T16:45:53.462Z,37.06
2022-11-26T16:48:27.545Z,36.99
2022-11-26T16:50:57.010Z,37.06
2022-11-26T16:53:25.061Z,37.25
2022-11-26T16:55:54.009Z,37.07
2022-11-26T16:58:38.372Z,37.59
2022-11-26T17:01:06.611Z,37.14
2022-11-26T17:03:34.667Z,37.54
2022-11-26T17:06:11.491Z,37.33
2022-11-26T17:08:40.558Z,36.84
2022-11-26T17:11:13.375Z,36.81
2022-11-26T17:13:41.498Z,37.30
2022-11-26T17:16:18.679Z,36.87
2022-11-26T17:18:48.084Z,37.31
2022-11-26T17:21:16.515Z,36.99
2022-11-26T17:23:45.908Z,36.26
2022-11-26T17:26:19.616Z,35.73
2022-11-26T17:28:48.680Z,36.36
2022-11-26T17:31:18.199Z,36.11
2022-11-26T17:33:46.281Z,35.76
2022-11-26T17:36:18.204Z,35.72
2022-11-26T17:38:47.764Z,34.88
2022-11-26T17:41:17.677Z,35.30
2022-11-26T17:43:46.115Z,35.43
2022-11-26T17:46:19.794Z,35.37
2022-11-26T17:48:55.556Z,35.39
2022-11-26T17:51:26.254Z,35.36
2022-11-26T17:53:54.152Z,35.18
2022-11-26T17:56:24.407Z,35.46
2022-11-26T17:58:52.544Z,35.54
2022-11-26T18:01:21.257Z,35.42
2022-11-26T18:03:49.464Z,35.57
2022-11-26T18:06:37.595Z,34.49
2022-11-26T18:09:05.573Z,33.96
2022-11-26T18:11:48.026Z,34.42
2022-11-26T18:14:16.880Z,34.30
2022-11-26T18:16:45.357Z,33.82
2022-11-26T18:19:15.312Z,33.51
2022-11-26T18:21:43.943Z,32.79
2022-11-26T18:24:13.037Z,33.65
2022-11-26T18:26:41.246Z,33.92
2022-11-26T18:29:12.464Z,33.61
2022-11-26T18:31:40.757Z,33.28
2022-11-26T18:34:09.012Z,34.54
2022-11-26T18:36:36.932Z,34.82
2022-11-26T18:39:06.157Z,34.45
2022-11-26T18:41:34.924Z,34.52
2022-11-26T18:44:04.214Z,34.33
2022-11-26T18:46:33.204Z,34.12
2022-11-26T18:49:01.328Z,34.40
2022-11-26T18:51:29.716Z,33.90
2022-11-26T18:53:57.898Z,34.16
2022-11-26T18:56:26.481Z,34.49
2022-11-26T18:58:55.982Z,33.98
2022-11-26T19:01:30.928Z,32.90
2022-11-26T19:03:59.635Z,33.31
2022-11-26T19:06:29.865Z,33.44
2022-11-26T19:09:06.081Z,32.71
2022-11-26T19:11:34.261Z,33.13
2022-11-26T19:14:02.315Z,33.44
2022-11-26T19:16:30.396Z,33.34
2022-11-26T19:19:02.318Z,33.82
2022-11-26T19:21:33.196Z,33.73
2022-11-26T19:24:04.584Z,32.71
2022-11-26T19:26:33.137Z,32.40
2022-11-26T19:29:04.530Z,32.61
2022-11-26T19:31:39.776Z,32.05
2022-11-26T19:34:13.818Z,32.53
2022-11-26T19:36:42.575Z,32.89
2022-11-26T19:39:10.566Z,32.36
2022-11-26T19:41:38.494Z,32.34
2022-11-26T19:44:07.320Z,32.42
2022-11-26T19:46:37.402Z,32.65
2022-11-26T19:49:05.498Z,33.14
2022-11-26T19:51:33.520Z,33.12
2022-11-26T19:54:01.780Z,32.55
2022-11-26T19:56:31.583Z,33.47
2022-11-26T19:59:02.271Z,33.60
2022-11-26T20:01:31.867Z,33.79
2022-11-26T20:04:02.951Z,33.98
2022-11-26T20:06:32.855Z,33.59
2022-11-26T20:09:01.296Z,34.12
2022-11-26T20:11:29.528Z,33.90
2022-11-26T20:13:58.277Z,33.54
2022-11-26T20:16:32.561Z,32.70
2022-11-26T20:19:03.098Z,32.83
2022-11-26T20:21:32.942Z,33.11
2022-11-26T20:24:06.184Z,32.93
2022-11-26T20:26:37.486Z,33.42
2022-11-26T20:29:12.265Z,33.28
2022-11-26T20:31:45.474Z,32.84
2022-11-26T20:34:15.497Z,33.83
2022-11-26T20:36:44.554Z,33.57
2022-11-26T20:39:18.924Z,33.99
2022-11-26T20:41:47.555Z,33.57
2022-11-26T20:44:15.909Z,33.83
2022-11-26T20:46:43.962Z,33.88
2022-11-26T20:49:12.323Z,33.67
2022-11-26T20:51:40.583Z,33.52
2022-11-26T20:54:08.418Z,33.37
2022-11-26T20:56:37.722Z,33.38
2022-11-26T20:59:07.197Z,33.24
2022-11-26T21:01:37.455Z,33.35
2022-11-26T21:04:07.044Z,32.65
2022-11-26T21:06:36.789Z,32.54
2022-11-26T21:09:06.627Z,32.91
2022-11-26T21:11:35.027Z,32.69
2022-11-26T21:14:04.008Z,32.94
2022-11-26T21:16:33.132Z,32.74
2022-11-26T21:19:01.115Z,32.16
2022-11-26T21:21:29.622Z,32.02
2022-11-26T21:23:58.181Z,31.68
2022-11-26T21:26:27.098Z,32.06
2022-11-26T21:28:57.872Z,32.42
2022-11-26T21:31:27.724Z,32.44
2022-11-26T21:33:58.249Z,32.51
2022-11-26T21:36:26.827Z,32.49
2022-11-26T21:38:55.465Z,32.86
2022-11-26T21:41:24.309Z,32.36
2022-11-26T21:43:52.474Z,32.50
2022-11-26T21:46:24.754Z,32.25
2022-11-26T21:48:55.029Z,32.64
2022-11-26T21:51:25.417Z,32.11
2022-11-26T21:53:55.310Z,32.35
2022-11-26T21:56:29.530Z,32.06
2022-11-26T21:58:58.920Z,32.32
2022-11-26T22:01:33.270Z,32.12
2022-11-26T22:04:07.571Z,32.03
2022-11-26T22:06:36.457Z,32.62
2022-11-26T22:09:05.828Z,32.46
2022-11-26T22:11:37.459Z,32.12
2022-11-26T22:14:06.417Z,31.93
2022-11-26T22:16:36.345Z,32.01
2022-11-26T22:19:05.852Z,31.85
2022-11-26T22:21:40.133Z,31.49
2022-11-26T22:24:12.189Z,31.84
2022-11-26T22:26:40.688Z,32.28
2022-11-26T22:29:10.735Z,32.40
2022-11-26T22:31:39.122Z,32.31
2022-11-26T22:34:12.849Z,31.93
2022-11-26T22:36:42.350Z,32.21
2022-11-26T22:39:14.060Z,32.49
2022-11-26T22:41:43.255Z,32.53
2022-11-26T22:44:12.196Z,32.27
2022-11-26T22:46:40.590Z,32.53
2022-11-26T22:49:12.366Z,32.36
2022-11-26T22:51:40.872Z,32.39
2022-11-26T22:54:12.416Z,32.18
2022-11-26T22:56:41.062Z,32.39
2022-11-26T22:59:12.265Z,32.99
2022-11-26T23:01:41.049Z,32.80
2022-11-26T23:04:11.795Z,32.45
2022-11-26T23:06:40.716Z,32.55
2022-11-26T23:09:10.466Z,32.09
2022-11-26T23:11:40.943Z,32.23
2022-11-26T23:14:12.131Z,32.21
2022-11-26T23:16:42.488Z,32.09
2022-11-26T23:19:14.298Z,32.29
2022-11-26T23:21:45.042Z,32.08
2022-11-26T23:24:15.840Z,32.31
2022-11-26T23:26:44.840Z,32.39
2022-11-26T23:29:13.729Z,32.27
2022-11-26T23:31:44.080Z,33.56
2022-11-26T23:34:13.416Z,34.71
2022-11-26T23:36:41.531Z,33.78
2022-11-26T23:39:12.459Z,33.52
2022-11-26T23:41:40.502Z,33.30
2022-11-26T23:44:08.667Z,33.00
2022-11-26T23:46:36.664Z,32.80
2022-11-26T23:49:05.333Z,32.51
2022-11-26T23:51:34.163Z,32.57
2022-11-26T23:54:02.334Z,32.68
2022-11-26T23:56:33.176Z,32.36
2022-11-26T23:59:03.738Z,32.35
